sensor_id;sensor_type;location;lat;lon;timestamp;P1;durP1;ratioP1;P2;durP2;ratioP2
75035;SDS011;64247;51.540;5.854;2023-06-10T00:01:07;6.68;;;5.90;;
75035;SDS011;64247;51.540;5.854;2023-06-10T00:03:08;5.95;;;5.35;;
75035;SDS011;64247;51.540;5.854;2023-06-10T00:05:09;9.02;;;5.72;;
75035;SDS011;64247;51.540;5.854;2023-06-10T00:07:10;6.28;;;5.68;;
75035;SDS011;64247;51.540;5.854;2023-06-10T00:09:11;9.30;;;6.72;;
75035;SDS011;64247;51.540;5.854;2023-06-10T00:11:12;7.15;;;6.45;;
75035;SDS011;64247;51.540;5.854;2023-06-10T00:13:13;8.07;;;6.13;;
75035;SDS011;64247;51.540;5.854;2023-06-10T00:15:14;8.57;;;6.72;;
75035;SDS011;64247;51.540;5.854;2023-06-10T00:17:15;6.65;;;5.97;;
75035;SDS011;64247;51.540;5.854;2023-06-10T00:19:16;9.68;;;7.35;;
75035;SDS011;64247;51.540;5.854;2023-06-10T00:21:19;6.90;;;6.25;;
75035;SDS011;64247;51.540;5.854;2023-06-10T00:23:21;6.63;;;6.03;;
75035;SDS011;64247;51.540;5.854;2023-06-10T00:25:22;7.43;;;6.55;;
75035;SDS011;64247;51.540;5.854;2023-06-10T00:27:24;7.32;;;6.63;;
75035;SDS011;64247;51.540;5.854;2023-06-10T00:29:27;8.75;;;6.70;;
75035;SDS011;64247;51.540;5.854;2023-06-10T00:31:28;8.73;;;6.85;;
75035;SDS011;64247;51.540;5.854;2023-06-10T00:33:30;7.95;;;7.15;;
75035;SDS011;64247;51.540;5.854;2023-06-10T00:35:31;8.75;;;7.05;;
75035;SDS011;64247;51.540;5.854;2023-06-10T00:37:33;9.07;;;7.45;;
75035;SDS011;64247;51.540;5.854;2023-06-10T00:39:37;9.52;;;7.50;;
75035;SDS011;64247;51.540;5.854;2023-06-10T00:41:38;9.05;;;6.72;;
75035;SDS011;64247;51.540;5.854;2023-06-10T00:43:39;9.25;;;7.78;;
75035;SDS011;64247;51.540;5.854;2023-06-10T00:45:42;7.95;;;7.10;;
75035;SDS011;64247;51.540;5.854;2023-06-10T00:47:42;10.27;;;6.88;;
75035;SDS011;64247;51.540;5.854;2023-06-10T00:49:44;8.88;;;7.93;;
75035;SDS011;64247;51.540;5.854;2023-06-10T00:51:46;9.85;;;7.68;;
75035;SDS011;64247;51.540;5.854;2023-06-10T00:53:49;8.73;;;7.72;;
75035;SDS011;64247;51.540;5.854;2023-06-10T00:55:50;11.50;;;8.07;;
75035;SDS011;64247;51.540;5.854;2023-06-10T00:57:51;9.00;;;7.72;;
75035;SDS011;64247;51.540;5.854;2023-06-10T00:59:53;11.00;;;8.27;;
75035;SDS011;64247;51.540;5.854;2023-06-10T01:01:55;8.70;;;7.80;;
75035;SDS011;64247;51.540;5.854;2023-06-10T01:03:57;15.38;;;7.93;;
75035;SDS011;64247;51.540;5.854;2023-06-10T01:06:06;11.63;;;8.38;;
75035;SDS011;64247;51.540;5.854;2023-06-10T01:08:53;8.55;;;7.30;;
75035;SDS011;64247;51.540;5.854;2023-06-10T01:12:10;12.45;;;8.38;;
75035;SDS011;64247;51.540;5.854;2023-06-10T01:14:28;9.75;;;7.78;;
75035;SDS011;64247;51.540;5.854;2023-06-10T01:16:31;10.30;;;7.53;;
75035;SDS011;64247;51.540;5.854;2023-06-10T01:18:33;12.18;;;8.57;;
75035;SDS011;64247;51.540;5.854;2023-06-10T01:20:34;10.05;;;7.93;;
75035;SDS011;64247;51.540;5.854;2023-06-10T01:22:40;11.25;;;8.55;;
75035;SDS011;64247;51.540;5.854;2023-06-10T01:24:41;8.95;;;8.00;;
75035;SDS011;64247;51.540;5.854;2023-06-10T01:26:43;15.32;;;8.93;;
75035;SDS011;64247;51.540;5.854;2023-06-10T01:31:33;14.00;;;9.20;;
75035;SDS011;64247;51.540;5.854;2023-06-10T01:33:50;10.70;;;8.45;;
75035;SDS011;64247;51.540;5.854;2023-06-10T01:35:53;11.57;;;8.40;;
75035;SDS011;64247;51.540;5.854;2023-06-10T01:37:58;13.80;;;9.32;;
75035;SDS011;64247;51.540;5.854;2023-06-10T01:40:01;12.43;;;9.60;;
75035;SDS011;64247;51.540;5.854;2023-06-10T01:42:08;12.98;;;9.93;;
75035;SDS011;64247;51.540;5.854;2023-06-10T01:44:12;10.00;;;8.95;;
75035;SDS011;64247;51.540;5.854;2023-06-10T01:46:22;12.40;;;9.07;;
75035;SDS011;64247;51.540;5.854;2023-06-10T01:48:23;13.82;;;9.77;;
75035;SDS011;64247;51.540;5.854;2023-06-10T01:50:24;11.93;;;9.48;;
75035;SDS011;64247;51.540;5.854;2023-06-10T01:52:25;14.75;;;9.88;;
75035;SDS011;64247;51.540;5.854;2023-06-10T01:54:26;13.95;;;10.20;;
75035;SDS011;64247;51.540;5.854;2023-06-10T01:56:27;10.95;;;9.75;;
75035;SDS011;64247;51.540;5.854;2023-06-10T01:58:28;13.50;;;10.13;;
75035;SDS011;64247;51.540;5.854;2023-06-10T02:00:29;12.65;;;10.32;;
75035;SDS011;64247;51.540;5.854;2023-06-10T02:02:30;12.80;;;9.38;;
75035;SDS011;64247;51.540;5.854;2023-06-10T02:04:31;13.15;;;9.88;;
75035;SDS011;64247;51.540;5.854;2023-06-10T02:06:33;11.90;;;9.15;;
75035;SDS011;64247;51.540;5.854;2023-06-10T02:08:37;13.68;;;10.15;;
75035;SDS011;64247;51.540;5.854;2023-06-10T02:10:38;13.68;;;10.35;;
75035;SDS011;64247;51.540;5.854;2023-06-10T02:12:38;14.27;;;11.48;;
75035;SDS011;64247;51.540;5.854;2023-06-10T02:14:39;14.80;;;9.70;;
75035;SDS011;64247;51.540;5.854;2023-06-10T02:16:40;12.95;;;10.30;;
75035;SDS011;64247;51.540;5.854;2023-06-10T02:18:41;12.90;;;10.30;;
75035;SDS011;64247;51.540;5.854;2023-06-10T02:20:46;14.15;;;10.27;;
75035;SDS011;64247;51.540;5.854;2023-06-10T02:22:47;13.35;;;10.45;;
75035;SDS011;64247;51.540;5.854;2023-06-10T02:24:48;13.18;;;10.60;;
75035;SDS011;64247;51.540;5.854;2023-06-10T02:26:49;16.02;;;10.07;;
75035;SDS011;64247;51.540;5.854;2023-06-10T02:28:52;12.98;;;11.38;;
75035;SDS011;64247;51.540;5.854;2023-06-10T02:30:53;14.35;;;11.45;;
75035;SDS011;64247;51.540;5.854;2023-06-10T02:32:55;13.43;;;10.48;;
75035;SDS011;64247;51.540;5.854;2023-06-10T02:34:58;15.05;;;10.15;;
75035;SDS011;64247;51.540;5.854;2023-06-10T02:37:01;12.20;;;10.40;;
75035;SDS011;64247;51.540;5.854;2023-06-10T02:39:03;14.77;;;10.60;;
75035;SDS011;64247;51.540;5.854;2023-06-10T02:41:05;15.32;;;11.30;;
75035;SDS011;64247;51.540;5.854;2023-06-10T02:43:06;14.98;;;10.85;;
75035;SDS011;64247;51.540;5.854;2023-06-10T02:45:07;13.77;;;9.80;;
75035;SDS011;64247;51.540;5.854;2023-06-10T02:47:13;12.23;;;10.25;;
75035;SDS011;64247;51.540;5.854;2023-06-10T02:49:14;14.90;;;10.65;;
75035;SDS011;64247;51.540;5.854;2023-06-10T02:51:16;14.88;;;10.00;;
75035;SDS011;64247;51.540;5.854;2023-06-10T02:53:20;28.55;;;11.77;;
75035;SDS011;64247;51.540;5.854;2023-06-10T02:55:27;16.13;;;11.18;;
75035;SDS011;64247;51.540;5.854;2023-06-10T02:57:34;15.40;;;11.70;;
75035;SDS011;64247;51.540;5.854;2023-06-10T02:59:37;12.38;;;9.73;;
75035;SDS011;64247;51.540;5.854;2023-06-10T03:01:39;12.85;;;10.13;;
75035;SDS011;64247;51.540;5.854;2023-06-10T03:03:44;15.20;;;10.77;;
75035;SDS011;64247;51.540;5.854;2023-06-10T03:05:49;14.02;;;11.02;;
75035;SDS011;64247;51.540;5.854;2023-06-10T03:07:52;15.45;;;11.25;;
75035;SDS011;64247;51.540;5.854;2023-06-10T03:09:53;18.73;;;12.02;;
75035;SDS011;64247;51.540;5.854;2023-06-10T03:11:54;16.15;;;11.07;;
75035;SDS011;64247;51.540;5.854;2023-06-10T03:13:56;13.23;;;11.57;;
75035;SDS011;64247;51.540;5.854;2023-06-10T03:15:58;14.55;;;11.20;;
75035;SDS011;64247;51.540;5.854;2023-06-10T03:18:01;20.52;;;11.57;;
75035;SDS011;64247;51.540;5.854;2023-06-10T03:20:03;16.70;;;11.65;;
75035;SDS011;64247;51.540;5.854;2023-06-10T03:22:11;16.60;;;11.23;;
75035;SDS011;64247;51.540;5.854;2023-06-10T03:24:28;13.95;;;11.00;;
75035;SDS011;64247;51.540;5.854;2023-06-10T03:26:30;14.68;;;11.63;;
75035;SDS011;64247;51.540;5.854;2023-06-10T03:28:31;17.88;;;12.73;;
75035;SDS011;64247;51.540;5.854;2023-06-10T03:30:32;15.55;;;11.75;;
75035;SDS011;64247;51.540;5.854;2023-06-10T03:32:33;14.25;;;11.88;;
75035;SDS011;64247;51.540;5.854;2023-06-10T03:34:34;17.42;;;12.48;;
75035;SDS011;64247;51.540;5.854;2023-06-10T03:36:36;14.43;;;11.23;;
75035;SDS011;64247;51.540;5.854;2023-06-10T03:38:38;14.57;;;11.70;;
75035;SDS011;64247;51.540;5.854;2023-06-10T03:40:41;16.23;;;12.45;;
75035;SDS011;64247;51.540;5.854;2023-06-10T03:42:42;29.50;;;12.32;;
75035;SDS011;64247;51.540;5.854;2023-06-10T03:44:45;19.13;;;12.00;;
75035;SDS011;64247;51.540;5.854;2023-06-10T03:46:46;16.27;;;11.40;;
75035;SDS011;64247;51.540;5.854;2023-06-10T03:48:48;20.00;;;13.07;;
75035;SDS011;64247;51.540;5.854;2023-06-10T03:50:49;17.05;;;12.38;;
75035;SDS011;64247;51.540;5.854;2023-06-10T03:52:51;19.33;;;13.25;;
75035;SDS011;64247;51.540;5.854;2023-06-10T03:54:55;16.67;;;12.27;;
75035;SDS011;64247;51.540;5.854;2023-06-10T03:56:56;20.02;;;13.25;;
75035;SDS011;64247;51.540;5.854;2023-06-10T03:58:58;22.27;;;13.90;;
75035;SDS011;64247;51.540;5.854;2023-06-10T04:00:59;15.73;;;11.85;;
75035;SDS011;64247;51.540;5.854;2023-06-10T04:03:08;17.45;;;13.32;;
75035;SDS011;64247;51.540;5.854;2023-06-10T04:05:18;20.05;;;13.02;;
75035;SDS011;64247;51.540;5.854;2023-06-10T04:07:23;20.52;;;13.07;;
75035;SDS011;64247;51.540;5.854;2023-06-10T04:09:24;20.00;;;12.95;;
75035;SDS011;64247;51.540;5.854;2023-06-10T04:11:25;22.48;;;13.48;;
75035;SDS011;64247;51.540;5.854;2023-06-10T04:13:26;20.40;;;13.07;;
75035;SDS011;64247;51.540;5.854;2023-06-10T04:15:30;23.10;;;13.93;;
75035;SDS011;64247;51.540;5.854;2023-06-10T04:17:35;23.42;;;13.48;;
75035;SDS011;64247;51.540;5.854;2023-06-10T04:19:36;29.17;;;13.05;;
75035;SDS011;64247;51.540;5.854;2023-06-10T04:21:37;26.15;;;12.95;;
75035;SDS011;64247;51.540;5.854;2023-06-10T04:23:38;32.13;;;13.82;;
75035;SDS011;64247;51.540;5.854;2023-06-10T04:25:39;22.88;;;12.93;;
75035;SDS011;64247;51.540;5.854;2023-06-10T04:27:41;38.60;;;13.13;;
75035;SDS011;64247;51.540;5.854;2023-06-10T04:29:42;24.05;;;12.10;;
75035;SDS011;64247;51.540;5.854;2023-06-10T04:31:42;18.17;;;12.20;;
75035;SDS011;64247;51.540;5.854;2023-06-10T04:33:44;22.35;;;12.30;;
75035;SDS011;64247;51.540;5.854;2023-06-10T04:35:45;23.08;;;11.73;;
75035;SDS011;64247;51.540;5.854;2023-06-10T04:37:48;23.55;;;11.45;;
75035;SDS011;64247;51.540;5.854;2023-06-10T04:39:49;29.65;;;10.95;;
75035;SDS011;64247;51.540;5.854;2023-06-10T04:41:50;25.75;;;10.95;;
75035;SDS011;64247;51.540;5.854;2023-06-10T04:43:51;20.08;;;10.90;;
75035;SDS011;64247;51.540;5.854;2023-06-10T04:45:54;24.27;;;10.23;;
75035;SDS011;64247;51.540;5.854;2023-06-10T04:47:56;37.42;;;12.55;;
75035;SDS011;64247;51.540;5.854;2023-06-10T04:49:58;26.67;;;11.20;;
75035;SDS011;64247;51.540;5.854;2023-06-10T04:52:00;17.45;;;10.40;;
75035;SDS011;64247;51.540;5.854;2023-06-10T04:54:01;18.27;;;10.07;;
75035;SDS011;64247;51.540;5.854;2023-06-10T04:56:03;21.05;;;10.77;;
75035;SDS011;64247;51.540;5.854;2023-06-10T04:58:04;14.43;;;8.65;;
75035;SDS011;64247;51.540;5.854;2023-06-10T05:00:05;18.10;;;9.82;;
75035;SDS011;64247;51.540;5.854;2023-06-10T05:02:08;14.43;;;9.30;;
75035;SDS011;64247;51.540;5.854;2023-06-10T05:04:09;15.98;;;9.40;;
75035;SDS011;64247;51.540;5.854;2023-06-10T05:06:10;17.58;;;9.57;;
75035;SDS011;64247;51.540;5.854;2023-06-10T05:08:10;10.85;;;8.00;;
75035;SDS011;64247;51.540;5.854;2023-06-10T05:10:11;21.35;;;8.73;;
75035;SDS011;64247;51.540;5.854;2023-06-10T05:12:12;18.42;;;9.45;;
75035;SDS011;64247;51.540;5.854;2023-06-10T05:14:13;22.13;;;9.63;;
75035;SDS011;64247;51.540;5.854;2023-06-10T05:16:16;13.93;;;8.57;;
75035;SDS011;64247;51.540;5.854;2023-06-10T05:18:17;15.00;;;8.20;;
75035;SDS011;64247;51.540;5.854;2023-06-10T05:20:18;16.15;;;8.15;;
75035;SDS011;64247;51.540;5.854;2023-06-10T05:22:19;15.90;;;7.82;;
75035;SDS011;64247;51.540;5.854;2023-06-10T05:24:20;19.00;;;8.57;;
75035;SDS011;64247;51.540;5.854;2023-06-10T05:26:21;21.08;;;8.80;;
75035;SDS011;64247;51.540;5.854;2023-06-10T05:28:22;14.60;;;8.10;;
75035;SDS011;64247;51.540;5.854;2023-06-10T05:30:23;18.95;;;8.07;;
75035;SDS011;64247;51.540;5.854;2023-06-10T05:32:24;15.57;;;8.35;;
75035;SDS011;64247;51.540;5.854;2023-06-10T05:34:25;13.75;;;7.95;;
75035;SDS011;64247;51.540;5.854;2023-06-10T05:36:26;12.38;;;8.60;;
75035;SDS011;64247;51.540;5.854;2023-06-10T05:38:27;14.07;;;8.45;;
75035;SDS011;64247;51.540;5.854;2023-06-10T05:40:28;13.57;;;8.20;;
75035;SDS011;64247;51.540;5.854;2023-06-10T05:42:29;14.27;;;7.88;;
75035;SDS011;64247;51.540;5.854;2023-06-10T05:44:30;14.65;;;7.80;;
75035;SDS011;64247;51.540;5.854;2023-06-10T05:46:31;14.82;;;7.97;;
75035;SDS011;64247;51.540;5.854;2023-06-10T05:48:32;12.02;;;7.85;;
75035;SDS011;64247;51.540;5.854;2023-06-10T05:50:33;19.40;;;8.77;;
75035;SDS011;64247;51.540;5.854;2023-06-10T05:52:38;10.38;;;7.03;;
75035;SDS011;64247;51.540;5.854;2023-06-10T05:54:42;14.85;;;8.63;;
75035;SDS011;64247;51.540;5.854;2023-06-10T05:56:43;11.07;;;6.82;;
75035;SDS011;64247;51.540;5.854;2023-06-10T05:58:44;9.90;;;6.47;;
75035;SDS011;64247;51.540;5.854;2023-06-10T06:00:45;10.00;;;6.82;;
75035;SDS011;64247;51.540;5.854;2023-06-10T06:02:46;10.77;;;6.25;;
75035;SDS011;64247;51.540;5.854;2023-06-10T06:04:47;12.07;;;7.30;;
75035;SDS011;64247;51.540;5.854;2023-06-10T06:06:48;9.98;;;6.53;;
75035;SDS011;64247;51.540;5.854;2023-06-10T06:08:48;12.30;;;7.45;;
75035;SDS011;64247;51.540;5.854;2023-06-10T06:10:49;9.57;;;6.60;;
75035;SDS011;64247;51.540;5.854;2023-06-10T06:12:50;9.82;;;7.22;;
75035;SDS011;64247;51.540;5.854;2023-06-10T06:14:51;8.50;;;6.32;;
75035;SDS011;64247;51.540;5.854;2023-06-10T06:16:52;9.57;;;6.07;;
75035;SDS011;64247;51.540;5.854;2023-06-10T06:18:53;13.00;;;6.50;;
75035;SDS011;64247;51.540;5.854;2023-06-10T06:20:54;13.48;;;8.07;;
75035;SDS011;64247;51.540;5.854;2023-06-10T06:22:55;15.75;;;6.55;;
75035;SDS011;64247;51.540;5.854;2023-06-10T06:24:56;8.40;;;6.32;;
75035;SDS011;64247;51.540;5.854;2023-06-10T06:26:56;11.63;;;6.78;;
75035;SDS011;64247;51.540;5.854;2023-06-10T06:28:57;10.38;;;6.55;;
75035;SDS011;64247;51.540;5.854;2023-06-10T06:30:58;10.43;;;6.28;;
75035;SDS011;64247;51.540;5.854;2023-06-10T06:32:59;9.98;;;5.97;;
75035;SDS011;64247;51.540;5.854;2023-06-10T06:35:00;11.27;;;6.38;;
75035;SDS011;64247;51.540;5.854;2023-06-10T06:37:01;9.50;;;5.75;;
75035;SDS011;64247;51.540;5.854;2023-06-10T06:39:05;13.35;;;6.65;;
75035;SDS011;64247;51.540;5.854;2023-06-10T06:41:06;7.95;;;5.90;;
75035;SDS011;64247;51.540;5.854;2023-06-10T06:43:07;6.88;;;5.35;;
75035;SDS011;64247;51.540;5.854;2023-06-10T06:45:31;8.27;;;5.80;;
75035;SDS011;64247;51.540;5.854;2023-06-10T06:47:34;10.32;;;6.13;;
75035;SDS011;64247;51.540;5.854;2023-06-10T06:49:34;11.98;;;7.05;;
75035;SDS011;64247;51.540;5.854;2023-06-10T06:51:36;8.55;;;5.60;;
75035;SDS011;64247;51.540;5.854;2023-06-10T06:53:37;11.70;;;5.88;;
75035;SDS011;64247;51.540;5.854;2023-06-10T06:55:44;17.77;;;7.55;;
75035;SDS011;64247;51.540;5.854;2023-06-10T06:57:45;9.38;;;5.90;;
75035;SDS011;64247;51.540;5.854;2023-06-10T06:59:47;9.27;;;6.38;;
75035;SDS011;64247;51.540;5.854;2023-06-10T07:01:48;6.88;;;4.93;;
75035;SDS011;64247;51.540;5.854;2023-06-10T07:03:49;6.55;;;5.18;;
75035;SDS011;64247;51.540;5.854;2023-06-10T07:05:49;6.80;;;4.53;;
75035;SDS011;64247;51.540;5.854;2023-06-10T07:07:50;7.90;;;5.13;;
75035;SDS011;64247;51.540;5.854;2023-06-10T07:09:55;6.72;;;4.80;;
75035;SDS011;64247;51.540;5.854;2023-06-10T07:11:55;7.55;;;5.07;;
75035;SDS011;64247;51.540;5.854;2023-06-10T07:13:56;25.48;;;5.47;;
75035;SDS011;64247;51.540;5.854;2023-06-10T07:15:57;6.60;;;5.18;;
75035;SDS011;64247;51.540;5.854;2023-06-10T07:17:59;7.38;;;5.05;;
75035;SDS011;64247;51.540;5.854;2023-06-10T07:20:00;6.15;;;4.72;;
75035;SDS011;64247;51.540;5.854;2023-06-10T07:22:00;6.05;;;4.40;;
75035;SDS011;64247;51.540;5.854;2023-06-10T07:24:01;6.80;;;4.88;;
75035;SDS011;64247;51.540;5.854;2023-06-10T07:26:02;7.10;;;4.43;;
75035;SDS011;64247;51.540;5.854;2023-06-10T07:28:03;9.10;;;4.93;;
75035;SDS011;64247;51.540;5.854;2023-06-10T07:30:05;9.25;;;4.50;;
75035;SDS011;64247;51.540;5.854;2023-06-10T07:32:08;7.60;;;4.80;;
75035;SDS011;64247;51.540;5.854;2023-06-10T07:34:09;8.27;;;4.60;;
75035;SDS011;64247;51.540;5.854;2023-06-10T07:36:10;5.65;;;5.05;;
75035;SDS011;64247;51.540;5.854;2023-06-10T07:38:11;5.97;;;4.50;;
75035;SDS011;64247;51.540;5.854;2023-06-10T07:40:11;7.20;;;4.57;;
75035;SDS011;64247;51.540;5.854;2023-06-10T07:42:12;7.72;;;5.22;;
75035;SDS011;64247;51.540;5.854;2023-06-10T07:44:13;9.63;;;4.80;;
75035;SDS011;64247;51.540;5.854;2023-06-10T07:46:14;7.70;;;5.10;;
75035;SDS011;64247;51.540;5.854;2023-06-10T07:48:16;4.95;;;4.50;;
75035;SDS011;64247;51.540;5.854;2023-06-10T07:50:17;6.57;;;5.00;;
75035;SDS011;64247;51.540;5.854;2023-06-10T07:52:18;8.93;;;4.90;;
75035;SDS011;64247;51.540;5.854;2023-06-10T07:54:18;6.07;;;4.65;;
75035;SDS011;64247;51.540;5.854;2023-06-10T07:56:19;6.72;;;5.32;;
75035;SDS011;64247;51.540;5.854;2023-06-10T07:58:21;6.55;;;4.75;;
75035;SDS011;64247;51.540;5.854;2023-06-10T08:00:23;6.15;;;4.35;;
75035;SDS011;64247;51.540;5.854;2023-06-10T08:02:24;5.85;;;4.40;;
75035;SDS011;64247;51.540;5.854;2023-06-10T08:04:25;6.93;;;4.85;;
75035;SDS011;64247;51.540;5.854;2023-06-10T08:06:26;5.55;;;4.40;;
75035;SDS011;64247;51.540;5.854;2023-06-10T08:08:27;5.35;;;4.88;;
75035;SDS011;64247;51.540;5.854;2023-06-10T08:10:28;5.68;;;4.28;;
75035;SDS011;64247;51.540;5.854;2023-06-10T08:12:28;15.02;;;5.57;;
75035;SDS011;64247;51.540;5.854;2023-06-10T08:14:30;8.45;;;4.00;;
75035;SDS011;64247;51.540;5.854;2023-06-10T08:16:30;8.70;;;4.50;;
75035;SDS011;64247;51.540;5.854;2023-06-10T08:18:31;7.30;;;4.40;;
75035;SDS011;64247;51.540;5.854;2023-06-10T08:20:32;7.47;;;4.38;;
75035;SDS011;64247;51.540;5.854;2023-06-10T08:22:33;5.25;;;4.00;;
75035;SDS011;64247;51.540;5.854;2023-06-10T08:24:34;5.85;;;4.18;;
75035;SDS011;64247;51.540;5.854;2023-06-10T08:26:35;6.05;;;4.60;;
75035;SDS011;64247;51.540;5.854;2023-06-10T08:28:36;7.53;;;4.70;;
75035;SDS011;64247;51.540;5.854;2023-06-10T08:30:37;6.05;;;4.10;;
75035;SDS011;64247;51.540;5.854;2023-06-10T08:32:38;9.52;;;4.40;;
75035;SDS011;64247;51.540;5.854;2023-06-10T08:34:39;5.72;;;4.20;;
75035;SDS011;64247;51.540;5.854;2023-06-10T08:36:39;6.88;;;4.10;;
75035;SDS011;64247;51.540;5.854;2023-06-10T08:38:40;5.38;;;4.72;;
75035;SDS011;64247;51.540;5.854;2023-06-10T08:40:41;9.73;;;5.10;;
75035;SDS011;64247;51.540;5.854;2023-06-10T08:42:43;12.95;;;4.97;;
75035;SDS011;64247;51.540;5.854;2023-06-10T08:44:55;12.27;;;5.38;;
75035;SDS011;64247;51.540;5.854;2023-06-10T08:46:58;8.02;;;4.57;;
75035;SDS011;64247;51.540;5.854;2023-06-10T08:49:02;11.48;;;4.72;;
75035;SDS011;64247;51.540;5.854;2023-06-10T08:51:10;13.73;;;6.18;;
75035;SDS011;64247;51.540;5.854;2023-06-10T08:53:13;6.28;;;4.72;;
75035;SDS011;64247;51.540;5.854;2023-06-10T08:55:18;41.53;;;7.70;;
75035;SDS011;64247;51.540;5.854;2023-06-10T08:57:32;10.30;;;5.50;;
75035;SDS011;64247;51.540;5.854;2023-06-10T08:59:34;8.40;;;5.28;;
75035;SDS011;64247;51.540;5.854;2023-06-10T09:01:35;10.35;;;5.57;;
75035;SDS011;64247;51.540;5.854;2023-06-10T09:03:37;10.52;;;4.90;;
75035;SDS011;64247;51.540;5.854;2023-06-10T09:05:39;15.73;;;6.80;;
75035;SDS011;64247;51.540;5.854;2023-06-10T09:07:42;13.75;;;5.57;;
75035;SDS011;64247;51.540;5.854;2023-06-10T09:09:44;13.80;;;5.28;;
75035;SDS011;64247;51.540;5.854;2023-06-10T09:11:45;11.40;;;5.88;;
75035;SDS011;64247;51.540;5.854;2023-06-10T09:13:47;11.27;;;5.10;;
75035;SDS011;64247;51.540;5.854;2023-06-10T09:15:48;8.52;;;4.13;;
75035;SDS011;64247;51.540;5.854;2023-06-10T09:17:51;8.93;;;5.00;;
75035;SDS011;64247;51.540;5.854;2023-06-10T09:19:52;11.77;;;5.50;;
75035;SDS011;64247;51.540;5.854;2023-06-10T09:21:55;7.95;;;4.50;;
75035;SDS011;64247;51.540;5.854;2023-06-10T09:23:56;8.98;;;4.93;;
75035;SDS011;64247;51.540;5.854;2023-06-10T09:25:58;14.98;;;5.80;;
75035;SDS011;64247;51.540;5.854;2023-06-10T09:27:59;8.68;;;5.05;;
75035;SDS011;64247;51.540;5.854;2023-06-10T09:30:00;25.75;;;6.97;;
75035;SDS011;64247;51.540;5.854;2023-06-10T09:32:01;7.32;;;5.70;;
75035;SDS011;64247;51.540;5.854;2023-06-10T09:34:09;7.28;;;5.60;;
75035;SDS011;64247;51.540;5.854;2023-06-10T09:36:21;13.27;;;6.50;;
75035;SDS011;64247;51.540;5.854;2023-06-10T09:38:23;6.50;;;4.60;;
75035;SDS011;64247;51.540;5.854;2023-06-10T09:40:32;10.55;;;5.68;;
75035;SDS011;64247;51.540;5.854;2023-06-10T09:42:33;12.45;;;5.22;;
75035;SDS011;64247;51.540;5.854;2023-06-10T09:44:35;8.07;;;5.07;;
75035;SDS011;64247;51.540;5.854;2023-06-10T09:46:36;26.45;;;7.18;;
75035;SDS011;64247;51.540;5.854;2023-06-10T09:48:44;9.63;;;5.07;;
75035;SDS011;64247;51.540;5.854;2023-06-10T09:50:46;7.65;;;4.47;;
75035;SDS011;64247;51.540;5.854;2023-06-10T09:52:48;7.72;;;5.20;;
75035;SDS011;64247;51.540;5.854;2023-06-10T09:54:51;7.70;;;4.65;;
75035;SDS011;64247;51.540;5.854;2023-06-10T09:56:53;6.38;;;4.63;;
75035;SDS011;64247;51.540;5.854;2023-06-10T09:58:53;10.23;;;5.07;;
75035;SDS011;64247;51.540;5.854;2023-06-10T10:00:54;11.23;;;4.90;;
75035;SDS011;64247;51.540;5.854;2023-06-10T10:02:55;8.48;;;5.13;;
75035;SDS011;64247;51.540;5.854;2023-06-10T10:05:03;12.02;;;4.70;;
75035;SDS011;64247;51.540;5.854;2023-06-10T10:07:04;13.38;;;5.72;;
75035;SDS011;64247;51.540;5.854;2023-06-10T10:09:07;13.02;;;5.82;;
75035;SDS011;64247;51.540;5.854;2023-06-10T10:11:08;11.82;;;5.20;;
75035;SDS011;64247;51.540;5.854;2023-06-10T10:13:11;6.30;;;4.70;;
75035;SDS011;64247;51.540;5.854;2023-06-10T10:15:12;12.00;;;5.22;;
75035;SDS011;64247;51.540;5.854;2023-06-10T10:17:14;22.27;;;6.07;;
75035;SDS011;64247;51.540;5.854;2023-06-10T10:21:52;14.30;;;5.13;;
75035;SDS011;64247;51.540;5.854;2023-06-10T10:24:01;9.52;;;5.55;;
75035;SDS011;64247;51.540;5.854;2023-06-10T10:26:10;12.77;;;6.03;;
75035;SDS011;64247;51.540;5.854;2023-06-10T10:28:12;14.20;;;5.80;;
75035;SDS011;64247;51.540;5.854;2023-06-10T10:30:15;5.78;;;4.75;;
75035;SDS011;64247;51.540;5.854;2023-06-10T10:35:21;19.83;;;5.88;;
75035;SDS011;64247;51.540;5.854;2023-06-10T10:37:23;13.45;;;5.53;;
75035;SDS011;64247;51.540;5.854;2023-06-10T10:39:26;6.13;;;5.53;;
75035;SDS011;64247;51.540;5.854;2023-06-10T10:41:28;5.38;;;4.90;;
75035;SDS011;64247;51.540;5.854;2023-06-10T10:43:32;5.80;;;4.97;;
75035;SDS011;64247;51.540;5.854;2023-06-10T10:45:34;12.60;;;5.65;;
75035;SDS011;64247;51.540;5.854;2023-06-10T10:47:35;20.08;;;5.50;;
75035;SDS011;64247;51.540;5.854;2023-06-10T10:49:39;16.17;;;5.60;;
75035;SDS011;64247;51.540;5.854;2023-06-10T10:54:14;5.82;;;4.80;;
75035;SDS011;64247;51.540;5.854;2023-06-10T10:56:15;11.88;;;5.70;;
75035;SDS011;64247;51.540;5.854;2023-06-10T10:58:23;17.50;;;4.57;;
75035;SDS011;64247;51.540;5.854;2023-06-10T11:02:45;6.30;;;4.80;;
75035;SDS011;64247;51.540;5.854;2023-06-10T11:04:47;5.95;;;4.53;;
75035;SDS011;64247;51.540;5.854;2023-06-10T11:06:52;13.60;;;5.63;;
75035;SDS011;64247;51.540;5.854;2023-06-10T11:08:54;11.30;;;5.35;;
75035;SDS011;64247;51.540;5.854;2023-06-10T11:10:55;8.45;;;4.97;;
75035;SDS011;64247;51.540;5.854;2023-06-10T11:12:56;9.98;;;5.10;;
75035;SDS011;64247;51.540;5.854;2023-06-10T11:14:58;8.80;;;4.80;;
75035;SDS011;64247;51.540;5.854;2023-06-10T11:16:59;10.98;;;5.88;;
75035;SDS011;64247;51.540;5.854;2023-06-10T11:19:00;12.45;;;5.35;;
75035;SDS011;64247;51.540;5.854;2023-06-10T11:21:02;8.48;;;5.50;;
75035;SDS011;64247;51.540;5.854;2023-06-10T11:23:05;18.52;;;6.32;;
75035;SDS011;64247;51.540;5.854;2023-06-10T11:25:13;8.57;;;5.20;;
75035;SDS011;64247;51.540;5.854;2023-06-10T11:29:39;13.23;;;6.30;;
75035;SDS011;64247;51.540;5.854;2023-06-10T11:32:15;7.57;;;5.30;;
75035;SDS011;64247;51.540;5.854;2023-06-10T11:34:21;5.53;;;4.72;;
75035;SDS011;64247;51.540;5.854;2023-06-10T11:36:25;5.03;;;4.53;;
75035;SDS011;64247;51.540;5.854;2023-06-10T11:38:28;11.63;;;5.50;;
75035;SDS011;64247;51.540;5.854;2023-06-10T11:40:29;8.85;;;5.43;;
75035;SDS011;64247;51.540;5.854;2023-06-10T11:42:30;7.22;;;4.82;;
75035;SDS011;64247;51.540;5.854;2023-06-10T11:44:32;5.13;;;4.57;;
75035;SDS011;64247;51.540;5.854;2023-06-10T11:46:35;8.43;;;4.97;;
75035;SDS011;64247;51.540;5.854;2023-06-10T11:48:36;14.60;;;5.32;;
75035;SDS011;64247;51.540;5.854;2023-06-10T11:50:37;7.88;;;5.53;;
75035;SDS011;64247;51.540;5.854;2023-06-10T11:52:38;16.60;;;6.55;;
75035;SDS011;64247;51.540;5.854;2023-06-10T11:54:41;5.88;;;5.25;;
75035;SDS011;64247;51.540;5.854;2023-06-10T11:56:42;5.70;;;5.25;;
75035;SDS011;64247;51.540;5.854;2023-06-10T11:58:43;8.10;;;4.80;;
75035;SDS011;64247;51.540;5.854;2023-06-10T12:00:49;5.93;;;5.20;;
75035;SDS011;64247;51.540;5.854;2023-06-10T12:02:55;5.55;;;5.05;;
75035;SDS011;64247;51.540;5.854;2023-06-10T12:07:19;6.95;;;4.82;;
75035;SDS011;64247;51.540;5.854;2023-06-10T12:09:23;6.72;;;5.63;;
75035;SDS011;64247;51.540;5.854;2023-06-10T12:11:29;9.32;;;5.25;;
75035;SDS011;64247;51.540;5.854;2023-06-10T12:13:30;7.78;;;5.40;;
75035;SDS011;64247;51.540;5.854;2023-06-10T12:15:31;5.82;;;4.63;;
75035;SDS011;64247;51.540;5.854;2023-06-10T12:19:53;8.75;;;5.10;;
75035;SDS011;64247;51.540;5.854;2023-06-10T12:21:54;7.13;;;5.22;;
75035;SDS011;64247;51.540;5.854;2023-06-10T12:26:33;10.02;;;5.65;;
75035;SDS011;64247;51.540;5.854;2023-06-10T12:28:36;7.80;;;4.78;;
75035;SDS011;64247;51.540;5.854;2023-06-10T12:30:37;5.53;;;4.78;;
75035;SDS011;64247;51.540;5.854;2023-06-10T12:35:02;11.90;;;6.55;;